createdAt,value
2023-08-08T00:01:54.675Z,5.30
2023-08-08T00:04:20.960Z,4.25
2023-08-08T00:06:47.200Z,9.38
2023-08-08T00:09:13.451Z,5.20
2023-08-08T00:11:39.707Z,5.35
2023-08-08T00:14:05.905Z,3.35
2023-08-08T00:16:33.135Z,4.72
2023-08-08T00:18:59.406Z,3.30
2023-08-08T00:21:25.672Z,7.22
2023-08-08T00:23:51.995Z,6.05
2023-08-08T00:26:18.526Z,6.30
2023-08-08T00:28:44.871Z,4.63
2023-08-08T00:31:11.127Z,7.47
2023-08-08T00:33:37.397Z,4.65
2023-08-08T00:36:03.674Z,4.35
2023-08-08T00:38:29.949Z,6.78
2023-08-08T00:40:56.228Z,7.35
2023-08-08T00:43:22.520Z,5.18
2023-08-08T00:45:48.791Z,5.65
2023-08-08T00:48:15.049Z,6.13
2023-08-08T00:50:41.310Z,7.95
2023-08-08T00:53:07.562Z,4.43
2023-08-08T00:55:33.828Z,4.10
2023-08-08T00:58:00.058Z,6.45
2023-08-08T01:00:27.497Z,6.70
2023-08-08T01:02:53.926Z,7.18
2023-08-08T01:05:20.205Z,7.90
2023-08-08T01:07:46.450Z,7.22
2023-08-08T01:10:12.717Z,6.00
2023-08-08T01:12:38.941Z,4.95
2023-08-08T01:15:05.208Z,4.93
2023-08-08T01:17:31.547Z,3.42
2023-08-08T01:19:57.792Z,5.20
2023-08-08T01:22:24.072Z,7.53
2023-08-08T01:24:50.358Z,5.28
2023-08-08T01:27:16.589Z,4.60
2023-08-08T01:29:42.868Z,3.45
2023-08-08T01:32:10.518Z,3.83
2023-08-08T01:34:38.671Z,4.35
2023-08-08T01:37:04.923Z,6.43
2023-08-08T01:39:31.774Z,5.00
2023-08-08T01:41:58.279Z,9.38
2023-08-08T01:44:24.666Z,4.75
2023-08-08T01:46:50.940Z,6.55
2023-08-08T01:49:17.234Z,4.43
2023-08-08T01:51:43.445Z,7.25
2023-08-08T01:54:09.676Z,6.53
2023-08-08T01:56:35.947Z,7.47
2023-08-08T01:59:02.232Z,6.93
2023-08-08T02:01:28.839Z,7.45
2023-08-08T02:03:55.647Z,5.35
2023-08-08T02:06:22.407Z,5.75
2023-08-08T02:08:48.870Z,8.68
2023-08-08T02:11:15.109Z,5.47
2023-08-08T02:13:41.391Z,8.98
2023-08-08T02:16:07.717Z,8.98
2023-08-08T02:18:34.012Z,7.85
2023-08-08T02:21:00.243Z,8.15
2023-08-08T02:23:26.471Z,7.40
2023-08-08T02:25:52.779Z,7.40
2023-08-08T02:28:19.038Z,5.57
2023-08-08T02:30:45.311Z,7.78
2023-08-08T02:33:11.581Z,5.72
2023-08-08T02:35:38.075Z,5.75
2023-08-08T02:38:04.324Z,9.43
2023-08-08T02:40:30.561Z,5.85
2023-08-08T02:42:56.779Z,8.77
2023-08-08T02:45:23.014Z,9.98
2023-08-08T02:47:49.399Z,7.45
2023-08-08T02:50:15.698Z,9.02
2023-08-08T02:52:41.968Z,6.35
2023-08-08T02:55:08.273Z,8.30
2023-08-08T02:57:34.563Z,9.45
2023-08-08T03:00:00.838Z,7.43
2023-08-08T03:02:27.187Z,11.93
2023-08-08T03:04:53.508Z,8.93
2023-08-08T03:07:19.773Z,7.43
2023-08-08T03:09:46.063Z,10.57
2023-08-08T03:12:12.290Z,6.60
2023-08-08T03:14:38.587Z,9.82
2023-08-08T03:17:04.857Z,9.25
2023-08-08T03:19:31.119Z,6.28
2023-08-08T03:21:58.058Z,8.98
2023-08-08T03:24:24.550Z,6.03
2023-08-08T03:26:50.800Z,5.90
2023-08-08T03:29:17.040Z,7.55
2023-08-08T03:31:43.248Z,7.28
2023-08-08T03:34:09.570Z,10.90
2023-08-08T03:36:35.974Z,7.97
2023-08-08T03:39:02.231Z,6.53
2023-08-08T03:41:28.491Z,5.55
2023-08-08T03:43:54.787Z,7.25
2023-08-08T03:46:21.090Z,7.18
2023-08-08T03:48:47.332Z,6.60
2023-08-08T03:51:13.569Z,7.78
2023-08-08T03:53:39.811Z,6.88
2023-08-08T03:56:06.071Z,8.75
2023-08-08T03:58:32.304Z,7.65
2023-08-08T04:00:58.595Z,11.23
2023-08-08T04:03:24.904Z,5.93
2023-08-08T04:05:51.195Z,9.80
2023-08-08T04:08:17.507Z,12.25
2023-08-08T04:10:43.756Z,8.38
2023-08-08T04:13:10.014Z,6.43
2023-08-08T04:15:36.224Z,7.25
2023-08-08T04:18:02.525Z,7.90
2023-08-08T04:20:28.799Z,12.73
2023-08-08T04:22:55.043Z,8.20
2023-08-08T04:25:21.316Z,7.25
2023-08-08T04:27:47.571Z,8.10
2023-08-08T04:30:13.804Z,8.63
2023-08-08T04:32:40.077Z,5.32
2023-08-08T04:35:06.419Z,7.53
2023-08-08T04:37:32.759Z,10.60
2023-08-08T04:39:59.463Z,16.88
2023-08-08T04:42:25.737Z,8.52
2023-08-08T04:44:52.021Z,6.47
2023-08-08T04:47:18.252Z,7.90
2023-08-08T04:49:44.530Z,7.28
2023-08-08T04:52:10.780Z,8.07
2023-08-08T04:54:38.685Z,7.13
2023-08-08T04:57:04.946Z,10.82
2023-08-08T04:59:31.177Z,11.40
2023-08-08T05:01:57.533Z,12.93
2023-08-08T05:04:23.979Z,9.52
2023-08-08T05:06:50.257Z,9.27
2023-08-08T05:09:16.493Z,12.20
2023-08-08T05:11:42.698Z,12.32
2023-08-08T05:14:08.958Z,11.93
2023-08-08T05:16:35.251Z,9.45
2023-08-08T05:19:01.605Z,14.57
2023-08-08T05:21:27.855Z,9.93
2023-08-08T05:23:54.072Z,12.80
2023-08-08T05:26:20.341Z,15.77
2023-08-08T05:28:46.641Z,13.50
2023-08-08T05:31:12.933Z,10.77
2023-08-08T05:33:39.202Z,15.55
2023-08-08T05:36:05.420Z,14.55
2023-08-08T05:38:31.711Z,13.32
2023-08-08T05:40:58.000Z,17.23
2023-08-08T05:43:24.231Z,19.52
2023-08-08T05:45:50.518Z,20.20
2023-08-08T05:48:16.798Z,15.50
2023-08-08T05:50:43.093Z,18.67
2023-08-08T05:53:09.343Z,15.98
2023-08-08T05:55:35.587Z,16.55
2023-08-08T05:58:01.854Z,16.98
2023-08-08T06:00:28.103Z,15.73
2023-08-08T06:02:54.376Z,16.77
2023-08-08T06:05:20.655Z,16.17
2023-08-08T06:07:46.914Z,25.42
2023-08-08T06:10:13.203Z,25.60
2023-08-08T06:12:39.484Z,23.02
2023-08-08T06:15:05.713Z,22.17
2023-08-08T06:17:32.032Z,19.52
2023-08-08T06:19:58.362Z,20.65
2023-08-08T06:22:24.676Z,21.85
2023-08-08T06:24:50.941Z,18.08
2023-08-08T06:27:17.199Z,25.23
2023-08-08T06:29:43.548Z,18.25
2023-08-08T06:32:09.852Z,22.88
2023-08-08T06:34:38.669Z,18.55
2023-08-08T06:37:04.906Z,19.50
2023-08-08T06:39:31.299Z,21.63
2023-08-08T06:41:58.076Z,20.13
2023-08-08T06:44:24.583Z,23.42
2023-08-08T06:46:50.883Z,21.23
2023-08-08T06:49:17.120Z,18.20
2023-08-08T06:51:43.375Z,25.85
2023-08-08T06:54:09.678Z,20.42
2023-08-08T06:56:35.941Z,17.60
2023-08-08T06:59:02.145Z,19.23
2023-08-08T07:01:28.491Z,25.80
2023-08-08T07:03:54.846Z,19.85
2023-08-08T07:06:21.164Z,16.42
2023-08-08T07:08:47.403Z,17.77
2023-08-08T07:11:13.667Z,16.20
2023-08-08T07:13:40.066Z,19.13
2023-08-08T07:16:06.514Z,20.80
2023-08-08T07:18:32.761Z,23.08
2023-08-08T07:20:59.040Z,19.45
2023-08-08T07:23:25.269Z,16.75
2023-08-08T07:25:51.944Z,19.95
2023-08-08T07:28:19.893Z,22.23
2023-08-08T07:30:46.222Z,24.38
2023-08-08T07:33:12.598Z,22.75
2023-08-08T07:35:38.938Z,23.05
2023-08-08T07:38:05.193Z,23.60
2023-08-08T07:40:31.475Z,22.40
2023-08-08T07:42:57.766Z,19.50
2023-08-08T07:45:24.011Z,31.33
2023-08-08T07:47:50.235Z,23.23
2023-08-08T07:50:16.568Z,23.85
2023-08-08T07:52:42.804Z,27.10
2023-08-08T07:55:09.083Z,19.73
2023-08-08T07:57:35.360Z,26.60
2023-08-08T08:00:01.628Z,27.65
2023-08-08T08:02:27.959Z,29.25
2023-08-08T08:04:54.236Z,26.67
2023-08-08T08:07:20.481Z,24.23
2023-08-08T08:09:46.700Z,30.55
2023-08-08T08:12:13.005Z,28.45
2023-08-08T08:14:39.283Z,28.98
2023-08-08T08:17:05.659Z,29.00
2023-08-08T08:19:32.077Z,28.50
2023-08-08T08:21:58.664Z,24.42
2023-08-08T08:24:25.289Z,24.08
2023-08-08T08:26:51.510Z,28.45
2023-08-08T08:29:17.767Z,22.45
2023-08-08T08:31:44.036Z,19.15
2023-08-08T08:34:10.281Z,27.30
2023-08-08T08:36:36.534Z,32.25
2023-08-08T08:39:02.854Z,19.33
2023-08-08T08:41:29.139Z,28.80
2023-08-08T08:43:55.467Z,22.80
2023-08-08T08:46:21.817Z,17.98
2023-08-08T08:48:48.093Z,21.65
2023-08-08T08:51:14.338Z,19.35
2023-08-08T08:53:40.608Z,21.92
2023-08-08T08:56:07.297Z,16.65
2023-08-08T08:58:33.560Z,19.25
2023-08-08T09:00:59.874Z,21.83
2023-08-08T09:03:26.408Z,20.42
2023-08-08T09:05:52.757Z,22.63
2023-08-08T09:08:18.990Z,20.52
2023-08-08T09:10:45.212Z,14.88
2023-08-08T09:13:11.560Z,17.67
2023-08-08T09:15:37.826Z,21.40
2023-08-08T09:18:04.215Z,17.92
2023-08-08T09:20:30.937Z,25.08
2023-08-08T09:22:57.251Z,16.23
2023-08-08T09:25:23.497Z,14.75
2023-08-08T09:27:49.734Z,14.77
2023-08-08T09:30:15.943Z,13.32
2023-08-08T09:32:42.253Z,12.63
2023-08-08T09:35:08.561Z,11.82
2023-08-08T09:37:38.991Z,16.55
2023-08-08T09:40:05.250Z,13.45
2023-08-08T09:42:31.469Z,12.38
2023-08-08T09:44:57.776Z,11.73
2023-08-08T09:47:24.102Z,16.75
2023-08-08T09:49:50.456Z,16.65
2023-08-08T09:52:16.781Z,14.40
2023-08-08T09:54:43.037Z,10.50
2023-08-08T09:57:09.266Z,12.05
2023-08-08T09:59:37.341Z,14.95
2023-08-08T10:02:04.095Z,11.10
2023-08-08T10:04:30.710Z,12.73
2023-08-08T10:06:57.153Z,7.10
2023-08-08T10:09:23.420Z,13.50
2023-08-08T10:11:49.724Z,13.88
2023-08-08T10:14:15.983Z,15.20
2023-08-08T10:16:43.568Z,10.10
2023-08-08T10:19:10.420Z,10.55
2023-08-08T10:21:36.769Z,10.85
2023-08-08T10:24:03.018Z,17.08
2023-08-08T10:26:29.248Z,13.18
2023-08-08T10:28:57.251Z,15.18
2023-08-08T10:31:24.989Z,13.35
2023-08-08T10:33:51.329Z,12.25
2023-08-08T10:36:17.589Z,14.60
2023-08-08T10:38:43.831Z,11.95
2023-08-08T10:41:10.077Z,10.63
2023-08-08T10:43:36.319Z,12.13
2023-08-08T10:46:12.725Z,9.40
2023-08-08T10:48:40.057Z,15.30
2023-08-08T10:51:06.264Z,9.32
2023-08-08T10:53:32.552Z,8.48
2023-08-08T10:55:58.818Z,6.63
2023-08-08T10:58:25.099Z,6.32
2023-08-08T11:00:51.397Z,7.80
2023-08-08T11:03:17.689Z,9.45
2023-08-08T11:05:44.743Z,8.43
2023-08-08T11:08:11.061Z,8.27
2023-08-08T11:10:37.300Z,7.00
2023-08-08T11:13:03.624Z,7.53
2023-08-08T11:15:29.898Z,8.23
2023-08-08T11:17:56.295Z,8.77
2023-08-08T11:20:22.604Z,6.35
2023-08-08T11:22:48.825Z,7.55
2023-08-08T11:25:15.522Z,8.20
2023-08-08T11:27:43.038Z,5.45
2023-08-08T11:30:10.634Z,7.00
2023-08-08T11:32:38.886Z,13.57
2023-08-08T11:35:05.110Z,9.77
2023-08-08T11:37:31.379Z,7.18
2023-08-08T11:39:58.064Z,13.73
2023-08-08T11:42:24.320Z,8.35
2023-08-08T11:44:50.594Z,9.18
2023-08-08T11:47:17.016Z,8.13
2023-08-08T11:49:43.306Z,13.15
2023-08-08T11:52:09.627Z,12.18
2023-08-08T11:54:35.927Z,15.75
2023-08-08T11:57:02.689Z,10.63
2023-08-08T11:59:28.927Z,13.77
2023-08-08T12:01:55.179Z,11.40
2023-08-08T12:04:21.455Z,8.48
2023-08-08T12:06:47.727Z,9.98
2023-08-08T12:09:14.018Z,8.75
2023-08-08T12:11:40.341Z,12.85
2023-08-08T12:14:06.578Z,11.10
2023-08-08T12:16:34.282Z,11.80
2023-08-08T12:19:01.020Z,14.65
2023-08-08T12:21:27.700Z,6.85
2023-08-08T12:23:53.957Z,9.50
2023-08-08T12:26:20.325Z,7.85
2023-08-08T12:28:46.569Z,7.13
2023-08-08T12:31:12.846Z,11.82
2023-08-08T12:33:39.183Z,7.78
2023-08-08T12:36:05.594Z,7.38
2023-08-08T12:38:31.816Z,8.90
2023-08-08T12:40:58.077Z,11.43
2023-08-08T12:43:24.451Z,10.05
2023-08-08T12:45:50.700Z,8.98
2023-08-08T12:48:16.915Z,6.65
2023-08-08T12:50:43.174Z,9.00
2023-08-08T12:53:09.470Z,7.13
2023-08-08T12:55:35.764Z,4.50
2023-08-08T12:58:02.019Z,5.75
2023-08-08T13:00:28.301Z,3.97
2023-08-08T13:02:54.721Z,8.77
2023-08-08T13:05:20.986Z,7.25
2023-08-08T13:07:47.208Z,7.18
2023-08-08T13:10:13.456Z,4.80
2023-08-08T13:12:39.720Z,5.10
2023-08-08T13:15:06.900Z,4.93
2023-08-08T13:17:34.501Z,6.97
2023-08-08T13:20:00.868Z,6.90
2023-08-08T13:22:27.148Z,6.22
2023-08-08T13:24:53.419Z,4.25
2023-08-08T13:27:19.653Z,5.30
2023-08-08T13:29:45.965Z,3.05
2023-08-08T13:32:12.251Z,4.65
2023-08-08T13:34:38.819Z,2.88
2023-08-08T13:37:05.084Z,3.92
2023-08-08T13:39:31.434Z,5.90
2023-08-08T13:41:57.715Z,4.57
2023-08-08T13:44:24.037Z,4.18
2023-08-08T13:46:50.320Z,3.63
2023-08-08T13:49:16.615Z,4.78
2023-08-08T13:51:43.085Z,4.80
2023-08-08T13:54:10.926Z,4.53
2023-08-08T13:56:37.194Z,8.60
2023-08-08T13:59:03.439Z,7.68
2023-08-08T14:01:29.671Z,12.40
2023-08-08T14:03:56.119Z,11.13
2023-08-08T14:06:22.435Z,9.48
2023-08-08T14:08:48.675Z,8.40
2023-08-08T14:11:14.983Z,4.65
2023-08-08T14:13:41.220Z,5.63
2023-08-08T14:16:07.489Z,9.85
2023-08-08T14:18:33.821Z,9.15
2023-08-08T14:21:00.086Z,5.75
2023-08-08T14:23:26.437Z,9.52
2023-08-08T14:25:52.796Z,9.85
2023-08-08T14:28:19.098Z,4.32
2023-08-08T14:30:45.389Z,7.15
2023-08-08T14:33:11.688Z,7.50
2023-08-08T14:35:38.029Z,5.30
2023-08-08T14:38:04.308Z,9.50
2023-08-08T14:40:30.588Z,7.80
2023-08-08T14:42:56.885Z,4.72
2023-08-08T14:45:23.192Z,4.68
2023-08-08T14:47:49.589Z,9.80
2023-08-08T14:50:15.979Z,6.32
2023-08-08T14:52:42.257Z,6.55
2023-08-08T14:55:08.542Z,8.55
2023-08-08T14:57:34.856Z,6.88
2023-08-08T15:00:01.093Z,10.85
2023-08-08T15:02:27.492Z,7.72
2023-08-08T15:04:53.790Z,11.27
2023-08-08T15:07:20.083Z,11.05
2023-08-08T15:09:46.285Z,6.97
2023-08-08T15:12:12.565Z,11.13
2023-08-08T15:14:38.885Z,9.07
2023-08-08T15:17:05.131Z,8.40
2023-08-08T15:19:31.397Z,9.00
2023-08-08T15:21:57.624Z,6.28
2023-08-08T15:24:23.865Z,10.52
2023-08-08T15:26:50.127Z,7.00
2023-08-08T15:29:16.421Z,7.70
2023-08-08T15:31:42.804Z,7.65
2023-08-08T15:34:09.166Z,8.05
2023-08-08T15:36:35.382Z,9.57
2023-08-08T15:39:01.692Z,7.72
2023-08-08T15:41:28.098Z,7.40
2023-08-08T15:43:54.385Z,7.32
2023-08-08T15:46:20.683Z,7.25
2023-08-08T15:48:47.005Z,8.30
2023-08-08T15:51:13.242Z,7.28
2023-08-08T15:53:39.528Z,7.53
2023-08-08T15:56:05.845Z,8.75
2023-08-08T15:58:32.181Z,7.10
2023-08-08T16:00:58.528Z,4.35
2023-08-08T16:03:25.025Z,10.25
2023-08-08T16:05:51.393Z,8.05
2023-08-08T16:08:18.619Z,3.25
2023-08-08T16:10:45.377Z,7.70
2023-08-08T16:13:11.767Z,6.13
2023-08-08T16:15:38.039Z,9.32
2023-08-08T16:18:04.381Z,3.55
2023-08-08T16:20:30.708Z,7.53
2023-08-08T16:22:57.008Z,7.18
2023-08-08T16:25:23.236Z,9.05
2023-08-08T16:27:49.494Z,7.55
2023-08-08T16:30:15.753Z,7.68
2023-08-08T16:32:42.173Z,7.30
2023-08-08T16:35:08.439Z,21.92
2023-08-08T16:37:34.732Z,9.65
2023-08-08T16:40:01.053Z,6.63
2023-08-08T16:42:27.357Z,4.70
2023-08-08T16:44:53.629Z,3.78
2023-08-08T16:47:19.906Z,5.18
2023-08-08T16:49:46.176Z,5.40
2023-08-08T16:52:12.444Z,4.70
2023-08-08T16:54:38.925Z,8.20
2023-08-08T16:57:05.145Z,4.95
2023-08-08T16:59:31.436Z,4.50
2023-08-08T17:01:57.696Z,4.97
2023-08-08T17:04:24.004Z,7.15
2023-08-08T17:06:50.295Z,5.70
2023-08-08T17:09:16.527Z,8.23
2023-08-08T17:11:42.838Z,5.68
2023-08-08T17:14:09.111Z,5.05
2023-08-08T17:16:35.383Z,3.63
2023-08-08T17:19:03.235Z,6.95
2023-08-08T17:21:29.568Z,5.30
2023-08-08T17:23:55.831Z,5.15
2023-08-08T17:26:22.117Z,4.38
2023-08-08T17:28:48.369Z,7.63
2023-08-08T17:31:14.681Z,7.70
2023-08-08T17:33:40.994Z,5.38
2023-08-08T17:36:07.264Z,5.43
2023-08-08T17:38:33.563Z,2.95
2023-08-08T17:40:59.828Z,4.60
2023-08-08T17:43:26.098Z,5.47
2023-08-08T17:45:52.395Z,4.05
2023-08-08T17:48:18.728Z,4.30
2023-08-08T17:50:45.013Z,2.75
2023-08-08T17:53:11.222Z,5.43
2023-08-08T17:55:37.516Z,4.55
2023-08-08T17:58:03.746Z,5.22
2023-08-08T18:00:30.801Z,5.25
2023-08-08T18:02:57.122Z,6.65
2023-08-08T18:05:23.418Z,4.15
2023-08-08T18:07:49.711Z,4.10
2023-08-08T18:10:15.978Z,4.88
2023-08-08T18:12:42.232Z,8.80
2023-08-08T18:15:08.497Z,4.57
2023-08-08T18:17:34.789Z,4.82
2023-08-08T18:20:01.072Z,7.68
2023-08-08T18:22:27.731Z,5.35
2023-08-08T18:24:54.133Z,4.97
2023-08-08T18:27:20.353Z,3.50
2023-08-08T18:29:46.602Z,6.30
2023-08-08T18:32:12.856Z,5.38
2023-08-08T18:34:39.167Z,5.38
2023-08-08T18:37:05.514Z,6.60
2023-08-08T18:39:31.893Z,5.65
2023-08-08T18:41:58.207Z,4.40
2023-08-08T18:44:24.653Z,6.22
2023-08-08T18:46:50.958Z,5.22
2023-08-08T18:49:17.255Z,4.05
2023-08-08T18:51:43.487Z,3.40
2023-08-08T18:54:09.789Z,4.82
2023-08-08T18:56:36.089Z,3.95
2023-08-08T18:59:02.287Z,5.05
2023-08-08T19:01:28.631Z,3.53
2023-08-08T19:03:55.125Z,5.90
2023-08-08T19:06:21.397Z,6.15
2023-08-08T19:08:47.685Z,8.70
2023-08-08T19:11:13.985Z,3.63
2023-08-08T19:13:40.306Z,4.35
2023-08-08T19:16:06.556Z,4.57
2023-08-08T19:18:32.914Z,11.35
2023-08-08T19:21:00.957Z,4.55
2023-08-08T19:23:27.236Z,6.50
2023-08-08T19:25:53.538Z,4.35
2023-08-08T19:28:19.824Z,4.75
2023-08-08T19:30:46.096Z,4.55
2023-08-08T19:33:12.357Z,4.07
2023-08-08T19:35:38.603Z,4.53
2023-08-08T19:38:04.892Z,5.47
2023-08-08T19:40:31.180Z,10.02
2023-08-08T19:42:57.485Z,7.20
2023-08-08T19:45:23.767Z,9.10
2023-08-08T19:47:50.043Z,7.15
2023-08-08T19:50:16.391Z,6.10
2023-08-08T19:52:42.661Z,3.95
2023-08-08T19:55:08.922Z,5.90
2023-08-08T19:57:35.218Z,5.75
2023-08-08T20:00:01.493Z,4.75
2023-08-08T20:02:27.786Z,5.10
2023-08-08T20:04:54.086Z,6.78
2023-08-08T20:07:20.378Z,8.50
2023-08-08T20:09:46.652Z,5.95
2023-08-08T20:12:13.005Z,6.82
2023-08-08T20:14:39.467Z,5.50
2023-08-08T20:17:05.717Z,8.40
2023-08-08T20:19:32.185Z,5.75
2023-08-08T20:21:58.429Z,12.43
2023-08-08T20:24:24.731Z,7.93
2023-08-08T20:26:50.980Z,6.47
2023-08-08T20:29:17.216Z,11.13
2023-08-08T20:31:43.452Z,9.05
2023-08-08T20:34:09.745Z,5.68
2023-08-08T20:36:36.156Z,8.82
2023-08-08T20:39:02.399Z,5.72
2023-08-08T20:41:28.657Z,7.03
2023-08-08T20:43:54.901Z,8.13
2023-08-08T20:46:21.184Z,8.48
2023-08-08T20:48:47.476Z,9.90
2023-08-08T20:51:13.734Z,8.25
2023-08-08T20:53:39.967Z,8.75
2023-08-08T20:56:06.261Z,6.10
2023-08-08T20:58:32.538Z,7.82
2023-08-08T21:00:58.915Z,7.53
2023-08-08T21:03:25.281Z,6.13
2023-08-08T21:05:51.607Z,6.20
2023-08-08T21:08:19.043Z,6.82
2023-08-08T21:10:45.310Z,5.57
2023-08-08T21:13:11.622Z,5.90
2023-08-08T21:15:37.882Z,9.35
2023-08-08T21:18:04.193Z,7.68
2023-08-08T21:20:30.461Z,6.50
2023-08-08T21:22:56.728Z,4.95
2023-08-08T21:25:22.964Z,5.35
2023-08-08T21:27:49.258Z,6.05
2023-08-08T21:30:15.581Z,6.22
2023-08-08T21:32:42.003Z,5.40
2023-08-08T21:35:11.249Z,4.35
2023-08-08T21:37:37.541Z,4.82
2023-08-08T21:40:03.809Z,6.00
2023-08-08T21:42:30.073Z,5.28
2023-08-08T21:44:56.357Z,4.03
2023-08-08T21:47:22.675Z,3.75
2023-08-08T21:49:48.953Z,3.30
2023-08-08T21:52:15.332Z,3.42
2023-08-08T21:54:42.010Z,3.08
2023-08-08T21:57:08.230Z,5.18
2023-08-08T21:59:34.555Z,2.78
2023-08-08T22:02:00.873Z,2.47
2023-08-08T22:04:27.217Z,2.25
2023-08-08T22:06:53.510Z,2.40
2023-08-08T22:09:19.846Z,2.15
2023-08-08T22:11:46.225Z,2.97
2023-08-08T22:14:12.442Z,2.42
2023-08-08T22:16:38.748Z,1.60
2023-08-08T22:19:05.048Z,1.52
2023-08-08T22:21:31.422Z,1.80
2023-08-08T22:23:57.709Z,3.05
2023-08-08T22:26:23.986Z,1.77
2023-08-08T22:28:50.272Z,1.63
2023-08-08T22:31:16.555Z,1.63
2023-08-08T22:33:42.851Z,1.60
2023-08-08T22:36:09.103Z,1.45
2023-08-08T22:38:35.390Z,1.50
2023-08-08T22:41:01.666Z,1.20
2023-08-08T22:43:27.909Z,2.10
2023-08-08T22:45:54.238Z,1.20
2023-08-08T22:48:20.518Z,4.13
2023-08-08T22:50:46.790Z,0.85
2023-08-08T22:53:13.117Z,0.80
2023-08-08T22:55:39.440Z,1.70
2023-08-08T22:58:14.888Z,1.27
2023-08-08T23:00:41.154Z,1.33
2023-08-08T23:03:14.671Z,1.65
2023-08-08T23:05:40.965Z,1.33
2023-08-08T23:08:07.230Z,1.63
2023-08-08T23:10:33.566Z,1.50
2023-08-08T23:12:59.800Z,1.25
2023-08-08T23:15:26.070Z,1.58
2023-08-08T23:17:52.445Z,2.90
2023-08-08T23:20:18.694Z,1.40
2023-08-08T23:22:44.987Z,1.95
2023-08-08T23:25:11.216Z,1.58
2023-08-08T23:27:37.501Z,1.38
2023-08-08T23:30:03.851Z,1.20
2023-08-08T23:32:30.096Z,1.60
2023-08-08T23:34:56.358Z,2.63
2023-08-08T23:37:22.638Z,1.95
2023-08-08T23:39:48.956Z,1.70
2023-08-08T23:42:15.234Z,1.63
2023-08-08T23:44:41.552Z,1.50
2023-08-08T23:47:07.824Z,1.30
2023-08-08T23:49:34.105Z,1.23
2023-08-08T23:52:00.310Z,1.95
2023-08-08T23:54:26.573Z,2.10
2023-08-08T23:56:52.835Z,1.52
2023-08-08T23:59:19.091Z,2.53
